Data for 10/10/2009

Time Sea-Level Adjusted Pressure Absolute Pressure Temperature Relative Humidity Dew Point   
(mb) (inHg) (mb) (inHg) (C) (F) (%) (C) (F)
00:05 1025 30.27 854 25.22 -10.6 13 80 -13.5 7.8
00:10 1025 30.27 854 25.22 -10.7 12.8 79 -13.6 7.6
00:15 1025 30.27 854 25.22 -10.7 12.8 79 -13.6 7.6
00:20 1025 30.27 854 25.22 -10.8 12.7 80 -13.6 7.6
00:25 1025 30.27 854 25.22 -10.9 12.4 80 -13.7 7.3
00:30 1025 30.27 854 25.22 -11 12.3 81 -13.7 7.4
00:35 1025 30.27 854 25.22 -10.9 12.4 80 -13.7 7.3
00:40 1025 30.27 854 25.22 -10.8 12.5 80 -13.6 7.5
00:45 1025 30.27 854 25.22 -10.8 12.6 79 -13.7 7.4
00:50 1025 30.27 854 25.22 -10.8 12.6 80 -13.6 7.5
00:55 1025 30.27 854 25.22 -10.8 12.6 80 -13.6 7.6
01:00 1025 30.27 854 25.22 -10.8 12.6 80 -13.6 7.4
01:05 1025 30.27 854 25.22 -10.7 12.7 79 -13.7 7.3
01:10 1025 30.27 854 25.22 -10.7 12.8 79 -13.7 7.4
01:15 1025 30.27 854 25.22 -10.6 13 80 -13.4 7.8
01:20 1025 30.27 854 25.22 -10.5 13.2 78 -13.6 7.5
01:25 1025 30.27 854 25.22 -10.4 13.2 78 -13.6 7.5
01:30 1025 30.27 854 25.22 -10.4 13.2 77 -13.7 7.4
01:35 1025 30.27 854 25.22 -10.4 13.3 76 -13.8 7.1
01:40 1025 30.27 854 25.22 -10.4 13.4 77 -13.7 7.4
01:45 1025 30.27 854 25.22 -10.3 13.4 76 -13.7 7.3
01:50 1025 30.27 854 25.22 -10.3 13.4 76 -13.8 7.2
01:55 1025 30.27 854 25.22 -10.3 13.4 77 -13.6 7.6
02:00 1025 30.27 854 25.22 -10.3 13.4 77 -13.7 7.3
02:05 1025 30.27 854 25.22 -10.3 13.4 77 -13.6 7.4
02:10 1025 30.27 854 25.22 -10.3 13.4 77 -13.6 7.5
02:15 1025 30.27 854 25.22 -10.3 13.4 77 -13.6 7.5
02:20 1025 30.27 854 25.22 -10.4 13.3 78 -13.5 7.7
02:25 1025 30.27 854 25.22 -10.4 13.2 77 -13.7 7.4
02:30 1025 30.27 854 25.22 -10.6 13 76 -14 6.9
02:35 1025 30.27 854 25.22 -10.6 12.9 78 -13.8 7.2
02:40 1025 30.27 854 25.22 -10.6 12.9 77 -14 6.9
02:45 1025 30.27 854 25.22 -10.6 12.9 77 -14 6.8
02:50 1024 30.24 854 25.22 -10.8 12.6 76 -14.2 6.4
02:55 1024 30.24 854 25.22 -10.7 12.7 77 -14 6.8
03:00 1024 30.24 854 25.22 -10.7 12.8 77 -13.9 7
03:05 1024 30.24 854 25.22 -10.7 12.8 77 -14 6.8
03:10 1024 30.24 854 25.22 -10.8 12.7 77 -14.1 6.6
03:15 1024 30.24 854 25.22 -10.8 12.6 78 -14 6.9
03:20 1024 30.24 853 25.19 -10.8 12.5 77 -14.1 6.6
03:25 1024 30.24 853 25.19 -10.9 12.4 76 -14.2 6.4
03:30 1024 30.24 853 25.19 -10.9 12.4 76 -14.3 6.2
03:35 1024 30.24 853 25.19 -11 12.2 76 -14.4 6.1
03:40 1024 30.24 853 25.19 -11.1 12.1 78 -14.1 6.5
03:45 1024 30.24 853 25.19 -11 12.3 76 -14.3 6.2
03:50 1024 30.24 853 25.19 -10.9 12.4 77 -14.1 6.6
03:55 1024 30.24 853 25.19 -10.8 12.5 77 -14.1 6.6
04:00 1024 30.24 853 25.19 -10.8 12.5 77 -14.2 6.4
04:05 1024 30.24 853 25.19 -10.8 12.7 76 -14.1 6.6
04:10 1024 30.24 853 25.19 -10.7 12.7 76 -14.2 6.5
04:15 1024 30.24 853 25.19 -10.8 12.5 77 -14 6.8
04:20 1024 30.24 853 25.19 -10.8 12.6 77 -14 6.8
04:25 1024 30.24 853 25.19 -10.8 12.6 76 -14.2 6.4
04:30 1024 30.24 853 25.19 -10.9 12.3 77 -14.3 6.3
04:35 1024 30.24 853 25.19 -11 12.2 77 -14.3 6.2
04:40 1024 30.24 853 25.19 -11 12.2 78 -14.2 6.5
04:45 1024 30.24 853 25.19 -10.9 12.3 77 -14.1 6.6
04:50 1024 30.24 853 25.19 -10.9 12.4 77 -14.1 6.6
04:55 1024 30.24 853 25.19 -10.9 12.4 78 -14.1 6.7
05:00 1024 30.24 853 25.19 -10.9 12.5 78 -14 6.8
05:05 1024 30.24 853 25.19 -10.8 12.5 79 -13.8 7.2
05:10 1024 30.24 853 25.19 -10.8 12.7 79 -13.8 7.2
05:15 1024 30.24 853 25.19 -10.6 12.8 77 -13.9 7
05:20 1024 30.24 853 25.19 -10.6 12.9 77 -14 6.8
05:25 1024 30.24 853 25.19 -10.7 12.7 77 -13.9 6.9
05:30 1024 30.24 853 25.19 -10.8 12.6 77 -14 6.8
05:35 1024 30.24 853 25.19 -10.7 12.7 78 -13.9 7
05:40 1024 30.24 853 25.19 -10.5 13.1 77 -13.8 7.2
05:45 1024 30.24 853 25.19 -10.4 13.3 77 -13.7 7.4
05:50 1024 30.24 853 25.19 -10.4 13.3 78 -13.5 7.7
05:55 1024 30.24 853 25.19 -10.3 13.5 77 -13.6 7.6
06:00 1024 30.24 853 25.19 -10.4 13.3 78 -13.6 7.6
06:05 1024 30.24 853 25.19 -10.3 13.5 77 -13.6 7.5
06:10 1024 30.24 853 25.19 -10.3 13.5 77 -13.6 7.6
06:15 1024 30.24 853 25.19 -10.3 13.5 76 -13.7 7.4
06:20 1024 30.24 853 25.19 -10.3 13.6 76 -13.7 7.4
06:25 1024 30.24 853 25.19 -10.2 13.7 76 -13.7 7.4
06:30 1024 30.24 853 25.19 -10.3 13.4 78 -13.5 7.7
06:35 1024 30.24 853 25.19 -10.3 13.5 77 -13.6 7.5
06:40 1024 30.24 853 25.19 -10.5 13.2 79 -13.5 7.7
06:45 1024 30.24 853 25.19 -10.4 13.3 77 -13.7 7.4
06:50 1024 30.24 853 25.19 -10.5 13 79 -13.6 7.6
06:55 1024 30.24 853 25.19 -10.5 13.2 79 -13.5 7.7
07:00 1024 30.24 853 25.19 -10.4 13.2 79 -13.5 7.8
07:05 1024 30.24 853 25.19 -10.4 13.3 78 -13.5 7.7
07:10 1024 30.24 853 25.19 -10.4 13.3 79 -13.4 8
07:15 1024 30.24 853 25.19 -10.5 13.2 80 -13.2 8.2
07:20 1024 30.24 853 25.19 -10.4 13.2 80 -13.3 8.1
07:25 1024 30.24 853 25.19 -10.5 13.1 78 -13.6 7.6
07:30 1024 30.24 853 25.19 -10.7 12.7 79 -13.6 7.5
07:35 1024 30.24 853 25.19 -10.7 12.8 79 -13.6 7.6
07:40 1024 30.24 853 25.19 -10.6 12.9 81 -13.3 8
07:45 1024 30.24 853 25.19 -10.7 12.8 81 -13.3 8
07:50 1024 30.24 853 25.19 -10.7 12.8 81 -13.3 8.1
07:55 1024 30.24 853 25.19 -10.6 12.9 81 -13.3 8.1
08:00 1024 30.24 853 25.19 -10.6 13 80 -13.4 7.8
08:05 1024 30.24 853 25.19 -10.7 12.7 80 -13.5 7.6
08:10 1024 30.24 853 25.19 -10.7 12.8 81 -13.4 7.9
08:15 1024 30.24 853 25.19 -10.5 13 80 -13.3 8
08:20 1024 30.24 853 25.19 -10.5 13.2 80 -13.4 8
08:25 1024 30.24 853 25.19 -10.5 13.1 80 -13.2 8.2
08:30 1024 30.24 853 25.19 -10.6 12.9 82 -13.2 8.3
08:35 1024 30.24 853 25.19 -10.7 12.7 82 -13.2 8.2
08:40 1024 30.24 853 25.19 -10.6 13 81 -13.2 8.3
08:45 1024 30.24 853 25.19 -10.4 13.3 81 -13 8.5
08:50 1024 30.24 853 25.19 -10.2 13.7 79 -13.2 8.3
08:55 1024 30.24 853 25.19 -10.2 13.6 79 -13.3 8.1
09:00 1024 30.24 853 25.19 -10.1 13.7 77 -13.5 7.8
09:05 1024 30.24 853 25.19 -10 14.1 77 -13.2 8.2
09:10 1024 30.24 853 25.19 -9.8 14.3 76 -13.3 8.1
09:15 1024 30.24 853 25.19 -9.8 14.3 76 -13.3 8
09:20 1024 30.24 853 25.19 -9.6 14.7 75 -13.2 8.2
09:25 1024 30.24 853 25.19 -9.5 15 75 -13.1 8.4
09:30 1024 30.24 853 25.19 -9.2 15.4 73 -13.2 8.2
09:35 1024 30.24 853 25.19 -9.5 14.9 75 -13.2 8.2
09:40 1024 30.24 853 25.19 -9.3 15.2 75 -13 8.5
09:45 1024 30.24 853 25.19 -9.1 15.6 75 -12.7 9.1
09:50 1024 30.24 853 25.19 -8.9 16 74 -12.6 9.2
09:55 1024 30.24 853 25.19 -8.7 16.4 74 -12.4 9.6
10:00 1024 30.24 853 25.19 -8.4 16.9 73 -12.5 9.5
10:05 1024 30.24 853 25.19 -8.2 17.2 72 -12.5 9.5
10:10 1024 30.24 853 25.19 -8.2 17.2 72 -12.4 9.7
10:15 1024 30.24 853 25.19 -8.2 17.3 71 -12.5 9.4
10:20 1024 30.24 853 25.19 -8 17.7 71 -12.4 9.7
10:25 1024 30.24 853 25.19 -7.9 17.7 70 -12.5 9.6
10:30 1024 30.24 853 25.19 -7.9 17.7 68 -12.8 9
10:35 1024 30.24 853 25.19 -7.9 17.7 69 -12.6 9.4
10:40 1024 30.24 853 25.19 -7.9 17.9 69 -12.6 9.2
10:45 1024 30.24 853 25.19 -7.8 17.9 69 -12.5 9.5
10:50 1024 30.24 853 25.19 -7.7 18.2 69 -12.4 9.8
10:55 1023 30.21 853 25.19 -7.6 18.3 69 -12.4 9.6
11:00 1023 30.21 853 25.19 -7.3 18.8 67 -12.4 9.6
11:05 1023 30.21 853 25.19 -7.5 18.4 71 -12 10.4
11:10 1023 30.21 853 25.19 -8.2 17.2 72 -12.5 9.5
11:15 1023 30.21 852 25.16 -7.6 18.3 69 -12.4 9.6
11:20 1023 30.21 852 25.16 -7.3 18.8 68 -12.2 10
11:25 1023 30.21 852 25.16 -7.2 19 67 -12.3 9.8
11:30 1023 30.21 852 25.16 -7 19.5 65 -12.5 9.4
11:35 1023 30.21 852 25.16 -6.7 19.9 64 -12.4 9.6
11:40 1023 30.21 852 25.16 -7 19.4 66 -12.3 9.9
11:45 1023 30.21 852 25.16 -7.6 18.3 67 -12.8 9
11:50 1023 30.21 852 25.16 -7.6 18.4 69 -12.4 9.7
11:55 1023 30.21 852 25.16 -7.2 19.1 65 -12.6 9.3
12:00 1023 30.21 852 25.16 -6.7 20 63 -12.7 9.2
12:05 1023 30.21 852 25.16 -6.8 19.8 66 -12.2 10
12:10 1023 30.21 852 25.16 -7.3 18.8 67 -12.5 9.5
12:15 1023 30.21 852 25.16 -6.7 19.9 65 -12.3 9.9
12:20 1023 30.21 852 25.16 -6.2 20.8 62 -12.4 9.6
12:25 1023 30.21 852 25.16 -6.2 20.8 65 -11.8 10.8
12:30 1023 30.21 852 25.16 -6.4 20.4 66 -11.8 10.8
12:35 1022 30.18 852 25.16 -6.2 20.8 62 -12.3 9.9
12:40 1022 30.18 852 25.16 -5.9 21.4 61 -12.3 9.9
12:45 1022 30.18 852 25.16 -6.3 20.7 63 -12.2 10
12:50 1022 30.18 852 25.16 -6.2 20.9 64 -11.9 10.6
12:55 1022 30.18 852 25.16 -6 21.2 63 -12 10.4
13:00 1022 30.18 852 25.16 -6.2 20.9 63 -12.1 10.3
13:05 1022 30.18 851 25.13 -5.8 21.5 61 -12.1 10.2
13:10 1022 30.18 851 25.13 -5.5 22.1 62 -11.7 10.9
13:15 1022 30.18 851 25.13 -5.4 22.4 60 -12 10.4
13:20 1022 30.18 851 25.13 -5.2 22.7 61 -11.6 11.1
13:25 1022 30.18 851 25.13 -5.2 22.7 59 -12 10.4
13:30 1022 30.18 851 25.13 -5.4 22.3 59 -12.3 9.9
13:35 1022 30.18 851 25.13 -5.8 21.6 62 -12 10.4
13:40 1022 30.18 851 25.13 -5.2 22.6 60 -11.8 10.7
13:45 1022 30.18 851 25.13 -5.4 22.3 60 -12 10.4
13:50 1022 30.18 851 25.13 -5 22.9 59 -11.9 10.6
13:55 1022 30.18 851 25.13 -5.5 22.1 60 -12 10.4
14:00 1022 30.18 851 25.13 -5.9 21.4 61 -12.2 10.1
14:05 1022 30.18 851 25.13 -5.4 22.3 59 -12.1 10.2
14:10 1022 30.18 851 25.13 -5.6 21.9 62 -11.7 10.9
14:15 1022 30.18 851 25.13 -5.7 21.8 61 -12.1 10.2
14:20 1021 30.15 851 25.13 -5.9 21.5 64 -11.7 11
14:25 1021 30.15 851 25.13 -6 21.2 62 -12.1 10.2
14:30 1021 30.15 850 25.1 -5.4 22.3 58 -12.3 9.9
14:35 1021 30.15 850 25.1 -6.3 20.6 64 -12 10.4
14:40 1021 30.15 850 25.1 -6 21.2 62 -12.2 10.1
14:45 1021 30.15 850 25.1 -5.5 22 60 -12.2 10
14:50 1021 30.15 850 25.1 -5.1 22.8 59 -11.9 10.6
14:55 1021 30.15 850 25.1 -5.3 22.5 58 -12.3 9.8
15:00 1021 30.15 850 25.1 -5.8 21.5 64 -11.5 11.3
15:05 1021 30.15 850 25.1 -5.5 22.2 58 -12.5 9.5
15:10 1021 30.15 850 25.1 -5.7 21.7 61 -12 10.4
15:15 1021 30.15 850 25.1 -5.9 21.4 63 -11.9 10.6
15:20 1021 30.15 850 25.1 -5.7 21.7 62 -12 10.5
15:25 1021 30.15 850 25.1 -5.1 22.9 60 -11.7 11
15:30 1021 30.15 850 25.1 -5.1 22.9 60 -11.7 10.9
15:35 1021 30.15 850 25.1 -4.9 23.2 58 -11.9 10.6
15:40 1021 30.15 850 25.1 -4.9 23.1 58 -12 10.4
15:45 1021 30.15 850 25.1 -5.5 22.1 60 -12.1 10.3
15:50 1021 30.15 850 25.1 -5.5 22.1 61 -11.9 10.6
15:55 1021 30.15 850 25.1 -5.7 21.8 60 -12.3 9.9
16:00 1021 30.15 850 25.1 -5.6 21.9 61 -12 10.4
16:05 1021 30.15 850 25.1 -5.2 22.6 61 -11.7 11
16:10 1021 30.15 850 25.1 -4.9 23.1 60 -11.6 11.2
16:15 1021 30.15 850 25.1 -4.9 23.3 59 -11.8 10.8
16:20 1021 30.15 850 25.1 -5.6 21.9 62 -11.8 10.8
16:25 1021 30.15 850 25.1 -5.9 21.4 62 -11.9 10.5
16:30 1021 30.15 850 25.1 -6.1 21 63 -12 10.5
16:35 1021 30.15 850 25.1 -5.9 21.3 65 -11.4 11.4
16:40 1021 30.15 850 25.1 -6 21.2 65 -11.5 11.2
16:45 1021 30.15 850 25.1 -6.1 21.1 66 -11.4 11.5
16:50 1021 30.15 850 25.1 -6.2 20.9 67 -11.3 11.7
16:55 1021 30.15 850 25.1 -6.3 20.7 70 -10.9 12.4
17:00 1021 30.15 850 25.1 -6.9 19.5 77 -10.3 13.4
17:05 1021 30.15 850 25.1 -7.1 19.2 75 -10.9 12.4
17:10 1021 30.15 850 25.1 -7 19.4 73 -11 12.2
17:15 1021 30.15 850 25.1 -6.9 19.6 70 -11.4 11.5
17:20 1021 30.15 850 25.1 -7 19.4 69 -11.7 10.9
17:25 1021 30.15 850 25.1 -7.4 18.8 68 -12.3 9.8
17:30 1021 30.15 850 25.1 -7.4 18.6 69 -12.2 10
17:35 1021 30.15 850 25.1 -7.3 18.8 66 -12.5 9.4
17:40 1021 30.15 850 25.1 -7.4 18.6 68 -12.3 9.8
17:45 1021 30.15 850 25.1 -7.4 18.7 69 -12.1 10.2
17:50 1021 30.15 850 25.1 -7.1 19.3 68 -12 10.5
17:55 1020 30.12 850 25.1 -7.2 19.1 69 -11.9 10.6
18:00 1020 30.12 850 25.1 -7.4 18.7 70 -11.9 10.5
18:05 1020 30.12 850 25.1 -7.7 18.2 72 -11.9 10.5
18:10 1020 30.12 850 25.1 -7.9 17.9 72 -12.1 10.1
18:15 1020 30.12 850 25.1 -8.1 17.5 72 -12.3 9.9
18:20 1020 30.12 850 25.1 -8 17.5 72 -12.3 9.9
18:25 1020 30.12 850 25.1 -8.1 17.4 72 -12.4 9.7
18:30 1020 30.12 850 25.1 -8.3 17.1 72 -12.5 9.5
18:35 1020 30.12 850 25.1 -8.5 16.6 73 -12.6 9.4
18:40 1020 30.12 850 25.1 -8.6 16.4 73 -12.7 9.2
18:45 1020 30.12 850 25.1 -8.8 16.2 74 -12.7 9.2
18:50 1020 30.12 850 25.1 -8.9 15.9 74 -12.8 9
18:55 1020 30.12 849 25.07 -9.1 15.6 75 -12.8 9
19:00 1020 30.12 849 25.07 -9.2 15.4 76 -12.8 9
19:05 1020 30.12 849 25.07 -9.3 15.3 76 -12.8 8.9
19:10 1020 30.12 849 25.07 -9.4 15.1 76 -12.9 8.9
19:15 1020 30.12 849 25.07 -9.5 15 76 -12.9 8.7
19:20 1020 30.12 850 25.1 -9.5 14.9 76 -13.1 8.5
19:25 1020 30.12 850 25.1 -9.7 14.6 75 -13.2 8.2
19:30 1020 30.12 850 25.1 -9.7 14.5 76 -13.1 8.4
19:35 1020 30.12 850 25.1 -9.8 14.3 76 -13.3 8.1
19:40 1020 30.12 850 25.1 -9.9 14.2 76 -13.3 8.1
19:45 1020 30.12 850 25.1 -9.9 14.1 77 -13.3 8.1
19:50 1020 30.12 849 25.07 -10 14.1 76 -13.4 8
19:55 1020 30.12 849 25.07 -10 14 77 -13.3 8
20:00 1020 30.12 849 25.07 -10 13.9 77 -13.3 8
20:05 1020 30.12 849 25.07 -10 13.9 76 -13.4 7.8
20:10 1020 30.12 849 25.07 -10.1 13.9 77 -13.4 7.9
20:15 1020 30.12 849 25.07 -10.1 13.7 77 -13.4 7.8
20:20 1020 30.12 849 25.07 -10.2 13.6 77 -13.5 7.8
20:25 1020 30.12 849 25.07 -10.2 13.6 77 -13.6 7.6
20:30 1020 30.12 849 25.07 -10.2 13.6 77 -13.5 7.7
20:35 1020 30.12 849 25.07 -10.3 13.5 77 -13.6 7.5
20:40 1020 30.12 849 25.07 -10.3 13.4 77 -13.6 7.5
20:45 1020 30.12 849 25.07 -10.3 13.4 77 -13.6 7.4
20:50 1020 30.12 849 25.07 -10.4 13.4 77 -13.7 7.3
20:55 1020 30.12 849 25.07 -10.4 13.4 77 -13.7 7.3
21:00 1020 30.12 849 25.07 -10.4 13.4 76 -13.8 7.2
21:05 1020 30.12 849 25.07 -10.4 13.4 76 -13.8 7.2
21:10 1020 30.12 849 25.07 -10.4 13.4 76 -13.7 7.3
21:15 1020 30.12 849 25.07 -10.4 13.3 77 -13.8 7.2
21:20 1020 30.12 849 25.07 -10.4 13.2 77 -13.7 7.3
21:25 1020 30.12 849 25.07 -10.5 13.1 77 -13.7 7.3
21:30 1020 30.12 849 25.07 -10.5 13.2 77 -13.7 7.3
21:35 1020 30.12 849 25.07 -10.5 13.1 77 -13.8 7.2
21:40 1020 30.12 849 25.07 -10.5 13 77 -13.9 7.1
21:45 1020 30.12 849 25.07 -10.5 13.1 77 -13.8 7.1
21:50 1020 30.12 849 25.07 -10.5 13.2 77 -13.8 7.1
21:55 1020 30.12 849 25.07 -10.5 13.2 77 -13.8 7.1
22:00 1020 30.12 849 25.07 -10.5 13.2 77 -13.8 7.2
22:05 1020 30.12 849 25.07 -10.5 13.1 77 -13.8 7.2
22:10 1020 30.12 849 25.07 -10.5 13.1 77 -13.8 7.2
22:15 1020 30.12 849 25.07 -10.5 13.2 77 -13.8 7.1
22:20 1020 30.12 849 25.07 -10.5 13.2 76 -13.9 7
22:25 1020 30.12 849 25.07 -10.5 13.1 76 -14 6.9
22:30 1020 30.12 849 25.07 -10.6 12.9 75 -14.1 6.5
22:35 1020 30.12 849 25.07 -10.7 12.7 75 -14.3 6.3
22:40 1020 30.12 849 25.07 -10.8 12.5 76 -14.4 6.2
22:45 1020 30.12 849 25.07 -10.9 12.4 75 -14.4 6.1
22:50 1020 30.12 849 25.07 -10.9 12.4 75 -14.4 6.1
22:55 1020 30.12 849 25.07 -10.9 12.4 75 -14.6 5.8
23:00 1020 30.12 849 25.07 -11 12.2 74 -14.7 5.5
23:05 1020 30.12 849 25.07 -11.1 12 74 -14.9 5.2
23:10 1020 30.12 849 25.07 -11.2 11.9 73 -15 4.9
23:15 1020 30.12 849 25.07 -11.2 11.8 74 -15 4.9
23:20 1020 30.12 849 25.07 -11.2 11.9 74 -14.9 5.1
23:25 1020 30.12 849 25.07 -11.1 12 74 -14.9 5.2
23:30 1019 30.09 849 25.07 -11.1 12 73 -15 5
23:35 1019 30.09 849 25.07 -11.1 12 73 -15 5.1
23:40 1019 30.09 849 25.07 -11.1 12 74 -14.8 5.3
23:45 1019 30.09 849 25.07 -11.1 12 75 -14.8 5.4
23:50 1019 30.09 848 25.04 -11.1 12.1 75 -14.7 5.6
23:55 1019 30.09 848 25.04 -11.1 12.1 74 -14.8 5.4
24:00 1019 30.09 848 25.04 -11 12.1 74 -14.9 5.2